createdAt,value
2023-03-24T00:01:27.304Z,67.83
2023-03-24T00:03:55.836Z,67.86
2023-03-24T00:06:26.733Z,67.91
2023-03-24T00:08:55.474Z,67.91
2023-03-24T00:11:25.640Z,67.92
2023-03-24T00:13:53.966Z,67.94
2023-03-24T00:16:22.376Z,68.04
2023-03-24T00:18:53.890Z,68.13
2023-03-24T00:21:25.277Z,68.17
2023-03-24T00:23:56.049Z,68.26
2023-03-24T00:26:25.649Z,68.31
2023-03-24T00:28:55.863Z,68.40
2023-03-24T00:31:24.959Z,68.46
2023-03-24T00:33:54.288Z,68.55
2023-03-24T00:36:26.012Z,68.59
2023-03-24T00:38:56.565Z,68.66
2023-03-24T00:41:27.392Z,68.72
2023-03-24T00:43:58.735Z,68.78
2023-03-24T00:46:28.213Z,68.81
2023-03-24T00:49:03.758Z,68.89
2023-03-24T00:51:37.993Z,68.95
2023-03-24T00:54:09.524Z,69.06
2023-03-24T00:56:40.934Z,69.14
2023-03-24T00:59:10.982Z,69.19
2023-03-24T01:01:41.513Z,69.22
2023-03-24T01:04:10.664Z,69.30
2023-03-24T01:06:41.406Z,69.38
2023-03-24T01:09:10.811Z,69.42
2023-03-24T01:11:41.567Z,69.42
2023-03-24T01:14:11.891Z,69.36
2023-03-24T01:16:42.400Z,69.28
2023-03-24T01:19:10.791Z,69.25
2023-03-24T01:21:39.603Z,69.17
2023-03-24T01:24:08.552Z,69.09
2023-03-24T01:26:37.027Z,69.04
2023-03-24T01:29:06.272Z,68.92
2023-03-24T01:31:35.862Z,68.81
2023-03-24T01:34:04.743Z,68.69
2023-03-24T01:36:33.112Z,68.59
2023-03-24T01:39:01.586Z,68.53
2023-03-24T01:41:35.542Z,68.49
2023-03-24T01:44:43.017Z,68.51
2023-03-24T01:47:11.508Z,68.60
2023-03-24T01:49:47.035Z,68.62
2023-03-24T01:52:22.911Z,68.64
2023-03-24T01:54:56.590Z,68.75
2023-03-24T01:57:31.192Z,68.91
2023-03-24T02:00:05.207Z,69.09
2023-03-24T02:02:45.884Z,69.25
2023-03-24T02:05:15.721Z,69.50
2023-03-24T02:08:01.820Z,69.61
2023-03-24T02:10:33.554Z,69.69
2023-03-24T02:13:02.185Z,69.81
2023-03-24T02:15:33.783Z,69.88
2023-03-24T02:19:16.488Z,69.95
2023-03-24T02:22:16.054Z,70.09
2023-03-24T02:25:03.270Z,70.18
2023-03-24T02:27:46.283Z,70.24
2023-03-24T02:30:50.788Z,70.26
2023-03-24T02:33:48.777Z,70.37
2023-03-24T02:36:45.814Z,70.44
2023-03-24T02:39:23.526Z,70.56
2023-03-24T02:42:11.247Z,70.61
2023-03-24T02:44:57.247Z,70.67
2023-03-24T02:47:29.448Z,70.80
2023-03-24T02:50:01.168Z,70.88
2023-03-24T02:52:46.814Z,71.06
2023-03-24T02:55:43.146Z,71.06
2023-03-24T02:58:23.527Z,71.14
2023-03-24T03:01:04.634Z,71.23
2023-03-24T03:03:55.790Z,71.48
2023-03-24T03:06:34.870Z,71.63
2023-03-24T03:09:08.837Z,71.73
2023-03-24T03:11:39.885Z,71.88
2023-03-24T03:14:15.836Z,72.03
2023-03-24T03:16:54.750Z,72.13
2023-03-24T03:19:31.789Z,72.35
2023-03-24T03:22:01.841Z,72.46
2023-03-24T03:24:41.674Z,72.57
2023-03-24T03:27:20.272Z,72.60
2023-03-24T03:29:54.499Z,72.71
2023-03-24T03:32:31.241Z,72.81
2023-03-24T03:35:09.970Z,72.89
2023-03-24T03:37:47.325Z,72.92
2023-03-24T03:40:22.710Z,72.96
2023-03-24T03:42:55.185Z,73.01
2023-03-24T03:45:23.445Z,73.02
2023-03-24T03:47:51.755Z,73.01
2023-03-24T03:50:20.305Z,72.99
2023-03-24T03:52:48.580Z,72.94
2023-03-24T03:55:17.220Z,72.88
2023-03-24T03:57:45.676Z,72.83
2023-03-24T04:00:24.765Z,72.75
2023-03-24T04:03:52.349Z,72.74
2023-03-24T04:06:50.542Z,72.67
2023-03-24T04:09:38.105Z,72.61
2023-03-24T04:12:10.621Z,72.59
2023-03-24T04:15:34.504Z,72.60
2023-03-24T04:19:02.005Z,72.62
2023-03-24T04:21:58.899Z,72.72
2023-03-24T04:24:50.587Z,72.71
2023-03-24T04:27:27.336Z,72.79
2023-03-24T04:30:17.006Z,72.84
2023-03-24T04:32:58.635Z,72.85
2023-03-24T04:35:32.143Z,72.85
2023-03-24T04:38:27.934Z,72.85
2023-03-24T04:41:10.551Z,72.90
2023-03-24T04:43:39.149Z,72.88
2023-03-24T04:46:10.116Z,72.84
2023-03-24T04:48:52.294Z,72.80
2023-03-24T04:51:28.834Z,72.81
2023-03-24T04:54:09.893Z,72.82
2023-03-24T04:56:48.875Z,72.90
2023-03-24T04:59:21.372Z,72.95
2023-03-24T05:01:52.279Z,72.98
2023-03-24T05:04:40.278Z,73.13
2023-03-24T05:07:34.652Z,73.27
2023-03-24T05:10:06.694Z,73.35
2023-03-24T05:12:39.835Z,73.49
2023-03-24T05:15:31.883Z,73.62
2023-03-24T05:18:10.361Z,73.79
2023-03-24T05:20:38.842Z,73.91
2023-03-24T05:23:14.053Z,73.93
2023-03-24T05:25:43.700Z,73.88
2023-03-24T05:28:12.180Z,73.92
2023-03-24T05:30:40.828Z,73.91
2023-03-24T05:33:17.866Z,73.80
2023-03-24T05:35:46.119Z,73.70
2023-03-24T05:38:14.710Z,73.62
2023-03-24T05:40:45.215Z,73.53
2023-03-24T05:43:18.852Z,73.38
2023-03-24T05:45:56.449Z,73.25
2023-03-24T05:48:30.236Z,73.14
2023-03-24T05:51:08.277Z,72.93
2023-03-24T05:53:36.955Z,72.80
2023-03-24T05:56:15.647Z,72.69
2023-03-24T05:59:02.280Z,72.63
2023-03-24T06:01:50.388Z,72.50
2023-03-24T06:04:25.257Z,72.36
2023-03-24T06:06:59.240Z,72.21
2023-03-24T06:09:37.609Z,72.02
2023-03-24T06:12:07.769Z,71.87
2023-03-24T06:14:38.728Z,71.83
2023-03-24T06:17:15.292Z,71.86
2023-03-24T06:19:49.509Z,71.84
2023-03-24T06:22:37.463Z,71.83
2023-03-24T06:25:09.759Z,71.78
2023-03-24T06:27:42.614Z,71.74
2023-03-24T06:30:11.032Z,71.68
2023-03-24T06:32:40.240Z,71.90
2023-03-24T06:35:09.090Z,71.70
2023-03-24T06:37:45.055Z,71.64
2023-03-24T06:40:17.705Z,71.59
2023-03-24T06:42:52.829Z,71.67
2023-03-24T06:45:21.278Z,71.63
2023-03-24T06:47:55.850Z,71.67
2023-03-24T06:50:33.135Z,71.67
2023-03-24T06:53:02.813Z,71.62
2023-03-24T06:55:32.537Z,71.64
2023-03-24T06:58:01.369Z,71.61
2023-03-24T07:00:35.705Z,71.61
2023-03-24T07:03:28.122Z,71.60
2023-03-24T07:06:19.528Z,71.61
2023-03-24T07:08:52.317Z,71.55
2023-03-24T07:11:21.315Z,71.47
2023-03-24T07:13:55.198Z,71.34
2023-03-24T07:16:23.489Z,71.27
2023-03-24T07:18:59.198Z,71.19
2023-03-24T07:21:29.229Z,71.06
2023-03-24T07:23:57.457Z,70.92
2023-03-24T07:26:36.471Z,70.75
2023-03-24T07:29:34.209Z,70.63
2023-03-24T07:32:09.285Z,70.34
2023-03-24T07:34:39.373Z,70.17
2023-03-24T07:37:07.491Z,70.03
2023-03-24T07:39:35.732Z,69.80
2023-03-24T07:42:04.078Z,69.70
2023-03-24T07:44:47.286Z,69.58
2023-03-24T07:47:15.487Z,69.34
2023-03-24T07:49:43.855Z,69.24
2023-03-24T07:52:12.490Z,69.18
2023-03-24T07:54:46.764Z,69.15
2023-03-24T07:57:32.106Z,69.02
2023-03-24T08:00:00.933Z,68.88
2023-03-24T08:02:45.736Z,68.71
2023-03-24T08:05:37.221Z,68.71
2023-03-24T08:08:35.442Z,68.66
2023-03-24T08:11:04.984Z,68.61
2023-03-24T08:13:33.138Z,68.62
2023-03-24T08:16:01.954Z,68.65
2023-03-24T08:18:32.197Z,68.70
2023-03-24T08:21:01.796Z,68.80
2023-03-24T08:23:29.992Z,69.04
2023-03-24T08:25:58.303Z,69.13
2023-03-24T08:28:26.414Z,69.38
2023-03-24T08:30:54.718Z,69.47
2023-03-24T08:33:23.072Z,69.60
2023-03-24T08:35:57.721Z,69.85
2023-03-24T08:38:32.490Z,70.09
2023-03-24T08:41:06.957Z,70.24
2023-03-24T08:43:37.837Z,70.40
2023-03-24T08:46:10.028Z,70.53
2023-03-24T08:48:41.439Z,70.64
2023-03-24T08:51:12.061Z,70.89
2023-03-24T08:53:40.680Z,71.09
2023-03-24T08:56:09.905Z,71.21
2023-03-24T08:58:38.080Z,71.28
2023-03-24T09:01:07.688Z,71.42
2023-03-24T09:03:39.972Z,71.52
2023-03-24T09:06:08.622Z,71.48
2023-03-24T09:08:37.401Z,71.64
2023-03-24T09:11:05.937Z,71.56
2023-03-24T09:13:34.075Z,71.33
2023-03-24T09:16:03.723Z,71.37
2023-03-24T09:18:31.954Z,71.11
2023-03-24T09:21:00.523Z,71.04
2023-03-24T09:23:29.440Z,70.95
2023-03-24T09:25:58.656Z,70.81
2023-03-24T09:28:26.901Z,70.46
2023-03-24T09:31:04.806Z,70.27
2023-03-24T09:33:35.006Z,70.14
2023-03-24T09:36:04.403Z,70.15
2023-03-24T09:38:35.214Z,70.25
2023-03-24T09:41:04.527Z,70.15
2023-03-24T09:44:01.765Z,70.01
2023-03-24T09:46:43.473Z,69.87
2023-03-24T09:49:26.670Z,69.28
2023-03-24T09:52:04.735Z,69.21
2023-03-24T09:54:45.415Z,68.93
2023-03-24T09:57:23.619Z,69.20
2023-03-24T09:59:52.070Z,68.85
2023-03-24T10:02:22.879Z,68.29
2023-03-24T10:04:51.001Z,67.97
2023-03-24T10:07:53.708Z,67.81
2023-03-24T10:10:52.900Z,67.77
2023-03-24T10:13:42.674Z,67.88
2023-03-24T10:16:33.201Z,67.47
2023-03-24T10:19:23.605Z,67.25
2023-03-24T10:22:03.214Z,67.03
2023-03-24T10:24:40.129Z,66.70
2023-03-24T10:27:42.400Z,66.57
2023-03-24T10:30:21.884Z,66.69
2023-03-24T10:32:50.334Z,66.70
2023-03-24T10:35:24.866Z,66.61
2023-03-24T10:37:57.263Z,66.75
2023-03-24T10:40:33.526Z,66.88
2023-03-24T10:43:07.193Z,66.98
2023-03-24T10:45:41.462Z,66.96
2023-03-24T10:48:11.833Z,66.82
2023-03-24T10:50:45.473Z,66.96
2023-03-24T10:53:19.283Z,66.76
2023-03-24T10:55:48.303Z,66.81
2023-03-24T10:58:42.804Z,66.95
2023-03-24T11:01:30.958Z,66.67
2023-03-24T11:04:07.274Z,66.57
2023-03-24T11:06:35.706Z,66.03
2023-03-24T11:09:19.716Z,65.64
2023-03-24T11:11:48.538Z,65.48
2023-03-24T11:14:28.651Z,65.06
2023-03-24T11:17:15.264Z,65.09
2023-03-24T11:19:54.363Z,65.07
2023-03-24T11:22:23.657Z,64.96
2023-03-24T11:24:55.637Z,64.84
2023-03-24T11:27:23.969Z,64.94
2023-03-24T11:29:55.262Z,65.14
2023-03-24T11:32:30.114Z,64.95
2023-03-24T11:35:14.560Z,64.82
2023-03-24T11:37:43.931Z,64.93
2023-03-24T11:40:12.240Z,64.42
2023-03-24T11:42:45.965Z,64.66
2023-03-24T11:45:26.491Z,64.60
2023-03-24T11:47:58.388Z,64.59
2023-03-24T11:50:37.681Z,64.17
2023-03-24T11:53:22.219Z,63.90
2023-03-24T11:56:02.541Z,64.07
2023-03-24T11:58:39.894Z,63.82
2023-03-24T12:01:39.702Z,64.22
2023-03-24T12:04:49.839Z,64.30
2023-03-24T12:07:39.856Z,64.16
2023-03-24T12:10:17.043Z,63.99
2023-03-24T12:12:51.076Z,64.01
2023-03-24T12:15:32.728Z,63.97
2023-03-24T12:18:16.456Z,64.05
2023-03-24T12:20:58.549Z,64.24
2023-03-24T12:23:34.219Z,64.39
2023-03-24T12:26:08.786Z,64.49
2023-03-24T12:28:45.827Z,64.46
2023-03-24T12:31:36.541Z,64.51
2023-03-24T12:34:28.268Z,64.66
2023-03-24T12:37:02.430Z,64.73
2023-03-24T12:39:35.702Z,64.71
2023-03-24T12:42:07.598Z,64.78
2023-03-24T12:44:51.174Z,64.98
2023-03-24T12:47:28.586Z,65.15
2023-03-24T12:50:18.562Z,65.29
2023-03-24T12:53:06.721Z,65.35
2023-03-24T12:55:51.327Z,65.54
2023-03-24T12:58:25.857Z,65.65
2023-03-24T13:01:00.390Z,65.72
2023-03-24T13:03:40.522Z,65.88
2023-03-24T13:06:27.285Z,66.05
2023-03-24T13:09:37.379Z,66.09
2023-03-24T13:12:27.777Z,66.31
2023-03-24T13:15:26.289Z,66.50
2023-03-24T13:18:21.704Z,66.80
2023-03-24T13:21:11.400Z,66.96
2023-03-24T13:24:08.507Z,67.35
2023-03-24T13:26:54.362Z,67.57
2023-03-24T13:29:49.241Z,67.94
2023-03-24T13:32:24.523Z,68.51
2023-03-24T13:35:04.006Z,68.91
2023-03-24T13:37:40.257Z,69.35
2023-03-24T13:40:18.430Z,69.60
2023-03-24T13:42:53.054Z,69.89
2023-03-24T13:45:40.780Z,69.82
2023-03-24T13:48:12.184Z,70.09
2023-03-24T13:50:51.628Z,70.17
2023-03-24T13:53:31.544Z,70.41
2023-03-24T13:56:04.400Z,70.42
2023-03-24T13:58:55.884Z,70.49
2023-03-24T14:01:41.039Z,70.51
2023-03-24T14:04:19.158Z,70.66
2023-03-24T14:06:50.321Z,70.69
2023-03-24T14:09:22.893Z,70.64
2023-03-24T14:11:57.106Z,70.43
2023-03-24T14:14:27.289Z,70.44
2023-03-24T14:17:15.067Z,70.36
2023-03-24T14:19:44.928Z,70.21
2023-03-24T14:22:32.919Z,70.05
2023-03-24T14:25:01.520Z,69.48
2023-03-24T14:27:41.157Z,69.36
2023-03-24T14:30:21.609Z,69.25
2023-03-24T14:32:56.458Z,69.21
2023-03-24T14:35:45.101Z,69.11
2023-03-24T14:38:16.173Z,68.97
2023-03-24T14:40:51.022Z,68.86
2023-03-24T14:43:28.456Z,68.74
2023-03-24T14:46:07.160Z,68.14
2023-03-24T14:48:58.047Z,68.05
2023-03-24T14:51:39.589Z,67.87
2023-03-24T14:54:24.271Z,67.59
2023-03-24T14:56:55.595Z,67.35
2023-03-24T14:59:37.147Z,67.25
2023-03-24T15:02:13.464Z,66.98
2023-03-24T15:05:03.801Z,66.72
2023-03-24T15:07:34.319Z,66.46
2023-03-24T15:10:02.814Z,65.94
2023-03-24T15:12:31.170Z,65.42
2023-03-24T15:15:00.668Z,64.97
2023-03-24T15:17:29.029Z,64.78
2023-03-24T15:19:57.220Z,64.55
2023-03-24T15:22:25.378Z,64.59
2023-03-24T15:24:53.478Z,63.93
2023-03-24T15:27:29.535Z,63.79
2023-03-24T15:30:00.771Z,63.90
2023-03-24T15:32:32.384Z,63.79
2023-03-24T15:35:06.238Z,62.31
2023-03-24T15:37:43.086Z,60.00
2023-03-24T15:40:26.514Z,57.62
2023-03-24T15:42:56.771Z,57.07
2023-03-24T15:45:30.755Z,58.78
2023-03-24T15:48:05.478Z,59.91
2023-03-24T15:50:39.005Z,60.94
2023-03-24T15:53:39.630Z,61.47
2023-03-24T15:56:25.099Z,62.85
2023-03-24T15:59:07.330Z,64.37
2023-03-24T16:01:38.688Z,64.52
2023-03-24T16:04:14.530Z,64.50
2023-03-24T16:06:49.437Z,64.35
2023-03-24T16:09:21.974Z,64.10
2023-03-24T16:11:51.217Z,63.89
2023-03-24T16:14:21.701Z,63.75
2023-03-24T16:16:55.010Z,63.51
2023-03-24T16:19:23.658Z,63.13
2023-03-24T16:21:51.825Z,62.87
2023-03-24T16:24:19.901Z,62.74
2023-03-24T16:26:48.988Z,62.39
2023-03-24T16:29:22.988Z,62.20
2023-03-24T16:31:53.431Z,61.97
2023-03-24T16:34:23.114Z,61.73
2023-03-24T16:36:54.481Z,61.40
2023-03-24T16:39:25.693Z,60.42
2023-03-24T16:41:54.081Z,60.71
2023-03-24T16:44:23.661Z,59.65
2023-03-24T16:46:54.110Z,59.12
2023-03-24T16:49:23.872Z,59.61
2023-03-24T16:51:53.351Z,59.72
2023-03-24T16:54:21.748Z,59.86
2023-03-24T16:56:49.931Z,60.45
2023-03-24T16:59:18.359Z,60.91
2023-03-24T17:01:47.430Z,61.74
2023-03-24T17:04:19.394Z,61.44
2023-03-24T17:06:52.967Z,60.79
2023-03-24T17:09:21.982Z,61.35
2023-03-24T17:11:52.854Z,62.21
2023-03-24T17:14:21.034Z,61.59
2023-03-24T17:16:53.102Z,61.20
2023-03-24T17:19:23.702Z,60.81
2023-03-24T17:22:04.619Z,60.64
2023-03-24T17:24:35.989Z,59.25
2023-03-24T17:27:12.193Z,58.67
2023-03-24T17:29:42.474Z,58.75
2023-03-24T17:32:13.405Z,58.50
2023-03-24T17:34:47.885Z,58.51
2023-03-24T17:37:17.139Z,59.11
2023-03-24T17:39:45.488Z,59.07
2023-03-24T17:42:13.541Z,59.73
2023-03-24T17:44:41.804Z,59.36
2023-03-24T17:47:10.488Z,60.13
2023-03-24T17:49:38.583Z,59.97
2023-03-24T17:52:07.173Z,59.90
2023-03-24T17:55:31.844Z,60.25
2023-03-24T17:58:08.831Z,59.99
2023-03-24T18:00:37.084Z,60.29
2023-03-24T18:03:05.215Z,60.41
2023-03-24T18:05:33.583Z,60.42
2023-03-24T18:08:01.970Z,60.45
2023-03-24T18:10:35.897Z,60.54
2023-03-24T18:13:06.089Z,60.66
2023-03-24T18:16:31.653Z,60.80
2023-03-24T18:19:18.979Z,60.65
2023-03-24T18:21:47.543Z,61.19
2023-03-24T18:24:16.149Z,61.35
2023-03-24T18:26:50.439Z,61.49
2023-03-24T18:29:22.123Z,61.68
2023-03-24T18:31:51.008Z,61.85
2023-03-24T18:34:19.622Z,62.79
2023-03-24T18:36:48.073Z,63.69
2023-03-24T18:39:17.810Z,63.49
2023-03-24T18:41:48.113Z,63.23
2023-03-24T18:44:16.525Z,62.87
2023-03-24T18:46:45.096Z,62.40
2023-03-24T18:49:16.897Z,61.90
2023-03-24T18:51:46.772Z,61.60
2023-03-24T18:54:15.420Z,61.18
2023-03-24T18:56:43.962Z,60.96
2023-03-24T18:59:12.075Z,60.76
2023-03-24T19:01:40.342Z,60.25
2023-03-24T19:04:09.350Z,60.24
2023-03-24T19:06:42.560Z,60.21
2023-03-24T19:09:12.657Z,60.13
2023-03-24T19:11:43.429Z,59.96
2023-03-24T19:14:12.377Z,59.94
2023-03-24T19:16:40.750Z,59.77
2023-03-24T19:19:09.983Z,59.18
2023-03-24T19:21:40.422Z,58.59
2023-03-24T19:25:05.275Z,58.79
2023-03-24T19:27:39.074Z,59.02
2023-03-24T19:30:08.609Z,60.05
2023-03-24T19:32:37.254Z,60.59
2023-03-24T19:35:06.214Z,61.29
2023-03-24T19:37:34.441Z,62.50
2023-03-24T19:40:06.942Z,63.35
2023-03-24T19:42:35.676Z,63.37
2023-03-24T19:45:04.115Z,63.17
2023-03-24T19:47:34.170Z,62.90
2023-03-24T19:50:03.885Z,62.59
2023-03-24T19:52:32.258Z,62.30
2023-03-24T19:55:57.401Z,62.04
2023-03-24T19:58:46.081Z,62.09
2023-03-24T20:01:14.392Z,61.60
2023-03-24T20:03:43.013Z,61.34
2023-03-24T20:06:11.222Z,61.15
2023-03-24T20:08:39.910Z,60.97
2023-03-24T20:11:10.445Z,60.69
2023-03-24T20:13:38.609Z,60.77
2023-03-24T20:16:07.087Z,60.69
2023-03-24T20:18:35.855Z,60.62
2023-03-24T20:21:06.456Z,60.45
2023-03-24T20:24:31.244Z,60.38
2023-03-24T20:27:18.244Z,60.72
2023-03-24T20:29:46.874Z,60.63
2023-03-24T20:32:15.409Z,60.57
2023-03-24T20:34:43.733Z,60.54
2023-03-24T20:37:14.722Z,60.50
2023-03-24T20:39:43.900Z,60.43
2023-03-24T20:42:12.522Z,60.50
2023-03-24T20:44:40.629Z,60.57
2023-03-24T20:47:08.811Z,60.65
2023-03-24T20:49:37.947Z,60.70
2023-03-24T20:52:06.257Z,60.76
2023-03-24T20:54:34.386Z,60.77
2023-03-24T20:57:03.562Z,60.74
2023-03-24T20:59:31.943Z,60.69
2023-03-24T21:02:01.966Z,60.66
2023-03-24T21:04:30.559Z,60.67
2023-03-24T21:07:55.999Z,60.61
2023-03-24T21:10:43.149Z,60.65
2023-03-24T21:13:12.692Z,60.34
2023-03-24T21:15:44.788Z,60.19
2023-03-24T21:18:13.367Z,60.09
2023-03-24T21:20:56.415Z,60.01
2023-03-24T21:23:26.636Z,59.97
2023-03-24T21:25:54.715Z,59.88
2023-03-24T21:28:23.810Z,59.71
2023-03-24T21:30:52.147Z,59.68
2023-03-24T21:33:20.762Z,59.67
2023-03-24T21:35:49.241Z,59.72
2023-03-24T21:38:18.856Z,59.74
2023-03-24T21:40:47.130Z,59.78
2023-03-24T21:43:15.256Z,59.78
2023-03-24T21:45:46.297Z,59.79
2023-03-24T21:48:16.378Z,59.81
2023-03-24T21:50:44.621Z,59.80
2023-03-24T21:53:15.732Z,59.80
2023-03-24T21:55:52.581Z,59.80
2023-03-24T21:58:20.960Z,59.82
2023-03-24T22:00:50.273Z,59.81
2023-03-24T22:03:20.680Z,59.83
2023-03-24T22:05:49.156Z,59.87
2023-03-24T22:08:22.864Z,59.89
2023-03-24T22:10:54.831Z,60.04
2023-03-24T22:13:23.182Z,60.20
2023-03-24T22:16:00.052Z,60.34
2023-03-24T22:18:30.900Z,60.47
2023-03-24T22:21:03.462Z,60.61
2023-03-24T22:23:34.087Z,60.72
2023-03-24T22:26:06.230Z,60.76
2023-03-24T22:28:36.035Z,60.81
2023-03-24T22:31:07.964Z,60.84
2023-03-24T22:33:36.864Z,60.83
2023-03-24T22:36:06.277Z,60.86
2023-03-24T22:38:34.734Z,60.83
2023-03-24T22:41:05.977Z,60.87
2023-03-24T22:43:35.917Z,60.93
2023-03-24T22:46:04.466Z,60.98
2023-03-24T22:48:32.709Z,61.03
2023-03-24T22:51:01.205Z,61.08
2023-03-24T22:53:30.602Z,61.14
2023-03-24T22:55:58.680Z,61.23
2023-03-24T22:58:27.204Z,61.30
2023-03-24T23:00:57.096Z,61.42
2023-03-24T23:03:25.567Z,61.46
2023-03-24T23:05:53.719Z,61.52
2023-03-24T23:08:21.922Z,61.54
2023-03-24T23:10:50.056Z,61.56
2023-03-24T23:13:18.443Z,61.62
2023-03-24T23:15:49.297Z,61.68
2023-03-24T23:18:18.236Z,61.79
2023-03-24T23:20:47.041Z,61.86
2023-03-24T23:23:15.544Z,61.94
2023-03-24T23:25:45.281Z,62.05
2023-03-24T23:28:14.046Z,62.14
2023-03-24T23:30:42.243Z,62.26
2023-03-24T23:33:14.976Z,62.31
2023-03-24T23:35:43.407Z,62.40
2023-03-24T23:38:11.584Z,62.47
2023-03-24T23:40:39.782Z,62.50
2023-03-24T23:43:07.987Z,62.56
2023-03-24T23:45:36.334Z,62.61
2023-03-24T23:48:06.233Z,62.69
2023-03-24T23:50:34.555Z,62.78
2023-03-24T23:53:02.904Z,62.87
2023-03-24T23:55:32.028Z,62.95
2023-03-24T23:58:00.292Z,63.08
